Time;durP1;ratioP1;P1;durP2;ratioP2;P2;SDS_P1;SDS_P2;PMS_P1;PMS_P2;Temp;Humidity;BMP_temperature;BMP_pressure;BME280_temperature;BME280_humidity;BME280_pressure;Samples;Min_cycle;Max_cycle;Signal;HPM_P1;HPM_P2
2022/12/17 13:06:54;;;;;;;37.27;17.27;;;-0.90;1.00;;;;;;5040512;28;20553;-55
2022/12/17 13:09:21;;;;;;;43.50;18.10;;;-1.10;1.00;;;;;;5066639;28;20391;-56
2022/12/17 13:11:54;;;;;;;36.73;15.67;;;-1.10;1.00;;;;;;5065056;28;20426;-56
2022/12/17 13:14:29;;;;;;;44.42;17.73;;;-1.20;1.00;;;;;;5064192;28;20743;-56
2022/12/17 13:17:25;;;;;;;46.23;19.10;;;-1.00;1.00;;;;;;5059047;28;20489;-56
2022/12/17 13:19:59;;;;;;;44.10;18.65;;;-0.70;1.00;;;;;;5051367;28;20393;-56
2022/12/17 13:22:30;;;;;;;45.33;17.57;;;-0.60;1.00;;;;;;5053001;28;20415;-56
2022/12/17 13:25:16;;;;;;;43.17;18.60;;;-0.50;1.00;;;;;;5055801;28;20439;-56
2022/12/17 13:27:42;;;;;;;41.00;20.00;;;-0.60;1.00;;;;;;5068350;28;20423;-56
2022/12/17 13:30:17;;;;;;;47.77;21.30;;;-0.70;1.00;;;;;;5068040;28;20410;-55
2022/12/17 13:33:02;;;;;;;48.60;21.15;;;-0.60;1.00;;;;;;5068088;28;20422;-56
2022/12/17 13:35:47;;;;;;;42.30;18.90;;;-0.40;1.00;;;;;;5067124;28;20469;-55
2022/12/17 13:38:41;;;;;;;37.97;19.23;;;-0.60;1.00;;;;;;5068311;28;20398;-56
2022/12/17 13:41:16;;;;;;;42.38;18.88;;;-0.60;1.00;;;;;;5067825;28;20399;-56
2022/12/17 13:43:44;;;;;;;37.30;17.95;;;-0.60;1.00;;;;;;5057557;28;20425;-56
2022/12/17 13:46:24;;;;;;;45.28;19.10;;;-0.70;1.00;;;;;;5064205;28;20410;-56
2022/12/17 13:49:01;;;;;;;46.90;19.23;;;-0.70;1.00;;;;;;5059912;28;20373;-56
2022/12/17 13:51:30;;;;;;;48.40;19.30;;;-0.90;1.00;;;;;;5067194;28;20403;-55
2022/12/17 13:54:00;;;;;;;49.65;17.75;;;-0.90;1.00;;;;;;5065210;28;20426;-55
2022/12/17 13:56:28;;;;;;;44.90;18.87;;;-1.00;1.00;;;;;;5064170;28;20412;-56
2022/12/17 13:58:56;;;;;;;45.78;19.05;;;-1.20;1.00;;;;;;5044973;28;20817;-56
2022/12/17 14:01:24;;;;;;;45.42;20.33;;;-1.30;1.00;;;;;;5059009;28;20412;-56
2022/12/17 14:03:56;;;;;;;43.50;17.75;;;-1.50;1.00;;;;;;5057697;28;20459;-56
2022/12/17 14:06:24;;;;;;;43.53;18.07;;;-1.70;1.00;;;;;;5050424;28;20496;-56
2022/12/17 14:08:53;;;;;;;39.17;18.15;;;-1.70;1.00;;;;;;5067045;28;20467;-54
2022/12/17 14:14:14;;;;;;;39.47;17.90;;;-1.80;1.00;;;;;;5061010;28;20434;-56
2022/12/17 14:16:40;;;;;;;51.05;22.20;;;-1.80;1.00;;;;;;5066704;28;20535;-56
2022/12/17 14:19:09;;;;;;;46.05;20.13;;;-1.80;1.00;;;;;;5049693;28;20423;-56
2022/12/17 14:21:36;;;;;;;49.75;20.20;;;-1.70;1.00;;;;;;5066665;28;20427;-56
2022/12/17 14:24:02;;;;;;;47.10;19.58;;;-1.70;1.00;;;;;;5066463;28;20446;-57
2022/12/17 14:26:28;;;;;;;47.10;20.30;;;-1.70;1.00;;;;;;5067529;28;20414;-56
2022/12/17 14:28:55;;;;;;;52.42;23.35;;;-1.80;1.00;;;;;;5067445;28;21126;-57
2022/12/17 14:31:23;;;;;;;50.58;22.27;;;-1.80;1.00;;;;;;5063555;28;20466;-56
2022/12/17 14:34:18;;;;;;;46.47;20.63;;;-1.50;1.00;;;;;;5068364;28;20411;-57
2022/12/17 14:36:45;;;;;;;44.42;19.85;;;-1.80;1.00;;;;;;5054477;28;21215;-56
2022/12/17 14:39:24;;;;;;;47.85;21.25;;;-2.00;1.00;;;;;;5066641;28;20411;-55
2022/12/17 14:44:46;;;;;;;48.95;21.10;;;-1.20;1.00;;;;;;5066701;28;20925;-56
2022/12/17 14:47:27;;;;;;;47.30;20.90;;;-2.10;1.00;;;;;;5067368;28;20879;-56
2022/12/17 14:50:00;;;;;;;44.85;21.88;;;-2.30;1.00;;;;;;5067689;28;20894;-56
2022/12/17 14:52:35;;;;;;;47.10;21.25;;;-2.40;38.60;;;;;;5068368;28;20411;-56
2022/12/17 14:55:20;;;;;;;52.67;21.90;;;-2.50;99.90;;;;;;5067143;28;20437;-55
2022/12/17 14:57:45;;;;;;;46.95;20.73;;;-2.40;99.90;;;;;;5058418;28;20408;-56
2022/12/17 15:00:12;;;;;;;45.97;20.70;;;-2.40;99.90;;;;;;5059034;28;20380;-57
2022/12/17 15:02:38;;;;;;;45.33;19.70;;;-2.40;99.90;;;;;;5063244;28;20399;-56
2022/12/17 15:05:04;;;;;;;48.20;20.20;;;-2.40;99.90;;;;;;5070763;28;20400;-58
2022/12/17 15:07:30;;;;;;;45.33;19.70;;;-2.60;99.90;;;;;;5071377;28;20470;-56
2022/12/17 15:09:59;;;;;;;45.17;19.33;;;-2.80;99.90;;;;;;5064791;28;20430;-56
2022/12/17 15:12:26;;;;;;;45.80;20.00;;;-3.00;99.90;;;;;;5070846;28;20402;-56
2022/12/17 15:14:52;;;;;;;48.05;19.50;;;-3.10;99.90;;;;;;5049377;28;20423;-56
2022/12/17 15:17:18;;;;;;;35.75;16.10;;;-3.40;99.90;;;;;;5041485;28;20420;-55
2022/12/17 15:19:43;;;;;;;41.40;18.00;;;-3.50;99.90;;;;;;5064811;28;20879;-55
2022/12/17 15:22:16;;;;;;;42.00;18.63;;;-2.50;99.90;;;;;;5062601;28;20760;-52
2022/12/17 15:24:43;;;;;;;40.58;17.00;;;-3.80;99.90;;;;;;5066316;28;20405;-56
2022/12/17 15:27:15;;;;;;;44.22;18.15;;;-3.80;1.00;;;;;;5063177;28;20417;-55
2022/12/17 15:29:41;;;;;;;36.92;16.55;;;-3.90;1.00;;;;;;5066587;28;20498;-55
2022/12/17 15:32:11;;;;;;;43.22;19.20;;;-4.00;1.00;;;;;;5068580;28;20419;-55
2022/12/17 15:34:36;;;;;;;55.92;18.20;;;-4.10;1.00;;;;;;5063973;28;20416;-55
2022/12/17 15:37:02;;;;;;;42.27;17.57;;;-4.20;1.00;;;;;;5062549;28;20401;-57
2022/12/17 15:39:27;;;;;;;37.03;17.70;;;-4.20;99.90;;;;;;5060018;28;20489;-56
2022/12/17 15:44:37;;;;;;;44.70;17.77;;;-4.50;99.90;;;;;;5056730;28;20443;-54
2022/12/17 15:47:03;;;;;;;46.57;19.90;;;-4.50;1.00;;;;;;5059831;28;20449;-54
2022/12/17 15:49:28;;;;;;;45.23;18.43;;;-4.60;1.00;;;;;;5058983;28;20414;-55
2022/12/17 15:51:54;;;;;;;38.28;17.25;;;-4.60;99.90;;;;;;5064161;28;20777;-54
2022/12/17 15:54:20;;;;;;;42.35;18.02;;;-3.90;99.90;;;;;;5058511;28;20419;-56
2022/12/17 15:56:52;;;;;;;40.70;16.83;;;-4.70;99.90;;;;;;5061863;28;20461;-53
2022/12/17 15:59:18;;;;;;;45.13;18.17;;;-3.40;99.90;;;;;;5058855;28;20449;-55
2022/12/17 16:01:44;;;;;;;41.85;16.30;;;-4.90;1.00;;;;;;5064548;28;20430;-55
2022/12/17 16:04:09;;;;;;;38.53;17.90;;;-4.90;99.90;;;;;;5060413;28;20473;-53
2022/12/17 16:06:35;;;;;;;40.17;16.75;;;-5.00;99.90;;;;;;5065134;28;20551;-54
2022/12/17 16:09:00;;;;;;;38.80;16.63;;;-3.70;99.90;;;;;;5062093;28;20438;-56
2022/12/17 16:11:26;;;;;;;39.20;15.70;;;-5.20;1.00;;;;;;5060168;28;20392;-53
2022/12/17 16:13:55;;;;;;;40.95;16.40;;;-5.30;99.90;;;;;;5067252;28;20420;-55
2022/12/17 16:16:21;;;;;;;40.47;17.17;;;-5.40;99.90;;;;;;5061385;28;20395;-55
2022/12/17 16:18:47;;;;;;;43.73;18.93;;;-5.40;99.90;;;;;;5058292;28;20484;-54
2022/12/17 16:21:12;;;;;;;42.70;19.33;;;-5.40;99.90;;;;;;5066718;28;20387;-54
2022/12/17 16:23:38;;;;;;;41.17;18.73;;;-5.30;99.90;;;;;;5064827;28;20456;-55
2022/12/17 16:26:06;;;;;;;40.17;17.77;;;-5.20;99.90;;;;;;5061670;28;20375;-56
2022/12/17 16:28:33;;;;;;;47.13;19.08;;;-5.30;1.00;;;;;;5042337;28;20405;-55
2022/12/17 16:31:04;;;;;;;44.40;19.40;;;-5.40;1.00;;;;;;5068559;28;20384;-57
2022/12/17 16:33:34;;;;;;;41.45;18.25;;;-5.50;52.20;;;;;;5067454;28;20407;-55
2022/12/17 16:36:01;;;;;;;43.88;19.95;;;-5.40;59.90;;;;;;5066622;28;20856;-57
2022/12/17 16:38:27;;;;;;;48.63;20.63;;;-5.00;99.90;;;;;;5067887;28;20384;-54
2022/12/17 16:41:00;;;;;;;45.70;20.75;;;-5.20;99.90;;;;;;5066445;28;20395;-55
2022/12/17 16:43:27;;;;;;;43.05;19.30;;;-4.40;99.90;;;;;;5067392;28;20419;-55
2022/12/17 16:45:53;;;;;;;45.33;20.02;;;-5.20;99.90;;;;;;5064425;28;20391;-55
2022/12/17 16:48:21;;;;;;;47.28;21.00;;;-5.20;99.90;;;;;;5059666;28;20392;-54
2022/12/17 16:50:47;;;;;;;51.45;21.40;;;-5.40;1.00;;;;;;5066082;28;20431;-54
2022/12/17 16:53:13;;;;;;;44.40;18.38;;;-5.60;73.40;;;;;;5063384;28;20383;-55
2022/12/17 16:55:47;;;;;;;51.40;20.87;;;-5.50;99.90;;;;;;5068854;28;20736;-54
2022/12/17 16:58:16;;;;;;;43.80;18.80;;;-5.40;1.00;;;;;;5067182;28;20769;-54
2022/12/17 17:00:42;;;;;;;46.15;18.52;;;-5.40;99.90;;;;;;5067856;28;20388;-54
2022/12/17 17:03:08;;;;;;;47.33;17.77;;;-5.60;99.90;;;;;;5064977;28;20483;-54
2022/12/17 17:05:37;;;;;;;41.30;18.13;;;-5.70;1.00;;;;;;5063185;28;20870;-54
2022/12/17 17:08:03;;;;;;;46.13;19.88;;;-5.70;1.00;;;;;;5065365;28;20379;-55
2022/12/17 17:10:29;;;;;;;46.42;19.88;;;-5.70;32.60;;;;;;5065635;28;20400;-54
2022/12/17 17:12:55;;;;;;;47.90;21.65;;;-5.60;99.90;;;;;;5068312;28;20415;-54
2022/12/17 17:15:21;;;;;;;59.28;24.30;;;-5.50;1.00;;;;;;5065318;28;20932;-55
2022/12/17 17:17:47;;;;;;;48.30;22.15;;;-5.40;1.00;;;;;;5068893;28;20388;-55
2022/12/17 17:20:13;;;;;;;47.10;19.23;;;-5.40;1.00;;;;;;5062094;28;20430;-55
2022/12/17 17:22:38;;;;;;;45.17;18.67;;;-5.50;99.90;;;;;;5057017;28;20455;-53
2022/12/17 17:25:04;;;;;;;47.87;20.43;;;-5.60;99.90;;;;;;5062278;28;20427;-53
2022/12/17 17:27:30;;;;;;;45.75;19.25;;;-5.80;99.90;;;;;;5061225;28;20385;-54
2022/12/17 17:29:57;;;;;;;47.05;17.85;;;-6.00;1.00;;;;;;5066863;28;20380;-54
2022/12/17 17:32:26;;;;;;;50.88;20.05;;;-6.00;99.90;;;;;;5067844;28;20870;-54
2022/12/17 17:34:51;;;;;;;50.75;20.20;;;-6.10;99.90;;;;;;5060695;28;20420;-53
2022/12/17 17:37:17;;;;;;;48.72;21.60;;;-6.10;1.00;;;;;;5062214;28;20411;-53
2022/12/17 17:39:43;;;;;;;51.35;19.80;;;-6.20;1.00;;;;;;5062485;28;20403;-54
2022/12/17 17:42:08;;;;;;;49.72;18.65;;;-6.20;99.90;;;;;;5054789;28;20762;-54
2022/12/17 17:44:34;;;;;;;49.27;19.20;;;-6.30;1.00;;;;;;5065401;28;20533;-55
2022/12/17 17:47:00;;;;;;;52.40;20.57;;;-6.10;1.00;;;;;;5056097;28;20421;-57
2022/12/17 17:49:26;;;;;;;47.40;20.70;;;-5.20;1.00;;;;;;5067970;28;20858;-55
2022/12/17 17:51:51;;;;;;;49.40;25.23;;;-6.10;99.90;;;;;;5066259;28;20425;-55
2022/12/17 17:54:17;;;;;;;107.03;42.45;;;-6.00;99.90;;;;;;5067026;28;20407;-55
2022/12/17 17:56:43;;;;;;;72.28;29.25;;;-5.90;1.00;;;;;;5063796;28;20843;-55
2022/12/17 17:59:18;;;;;;;67.45;25.67;;;-5.90;1.00;;;;;;5067630;28;20470;-55
2022/12/17 18:01:47;;;;;;;50.20;20.98;;;-5.90;1.00;;;;;;5047889;28;20395;-54
2022/12/17 18:04:15;;;;;;;57.58;23.85;;;-5.90;99.90;;;;;;5066536;28;20470;-54
2022/12/17 18:06:43;;;;;;;57.85;24.73;;;-5.90;1.00;;;;;;5068242;28;20406;-57
2022/12/17 18:09:09;;;;;;;61.60;23.42;;;-5.80;1.00;;;;;;5066875;28;20686;-53
2022/12/17 18:11:37;;;;;;;59.22;22.98;;;-5.80;99.90;;;;;;5067981;28;20380;-53
2022/12/17 18:14:04;;;;;;;50.40;21.13;;;-5.90;99.90;;;;;;5064413;28;20425;-54
2022/12/17 18:16:46;;;;;;;49.10;19.90;;;-5.90;99.90;;;;;;5068055;28;20849;-54
2022/12/17 18:19:21;;;;;;;55.58;21.05;;;-6.00;99.90;;;;;;5065621;28;20380;-54
2022/12/17 18:21:48;;;;;;;45.72;19.23;;;-6.00;99.90;;;;;;5067861;28;20396;-55
2022/12/17 18:24:15;;;;;;;55.80;19.08;;;-6.00;99.90;;;;;;5064344;28;20405;-54
2022/12/17 18:26:42;;;;;;;47.75;18.42;;;-6.20;99.90;;;;;;5067221;28;20375;-53
2022/12/17 18:29:20;;;;;;;47.38;18.88;;;-6.20;1.00;;;;;;5069286;28;20470;-54
2022/12/17 18:31:46;;;;;;;55.30;22.40;;;-6.30;1.00;;;;;;5070433;28;20433;-54
2022/12/17 18:34:14;;;;;;;46.20;18.85;;;-6.40;99.90;;;;;;5068218;28;20407;-55
2022/12/17 18:36:42;;;;;;;48.78;20.05;;;-6.50;99.90;;;;;;5069211;28;20403;-54
2022/12/17 18:39:11;;;;;;;48.63;20.02;;;-6.40;1.00;;;;;;5070341;28;20852;-54
2022/12/17 18:44:22;;;;;;;61.25;25.27;;;-6.30;1.00;;;;;;5061688;28;20467;-53
2022/12/17 18:46:48;;;;;;;47.35;20.80;;;-6.30;1.00;;;;;;5052153;28;20747;-54
2022/12/17 18:49:16;;;;;;;53.92;20.08;;;-6.30;1.00;;;;;;5055746;28;20475;-54
2022/12/17 18:51:43;;;;;;;49.05;21.10;;;-6.40;1.00;;;;;;5071570;28;20391;-55
2022/12/17 18:54:14;;;;;;;50.40;20.15;;;-6.40;99.90;;;;;;5070208;28;20399;-54
2022/12/17 18:56:39;;;;;;;52.72;20.27;;;-6.70;1.00;;;;;;5068778;28;20422;-54
2022/12/17 18:59:06;;;;;;;50.35;19.30;;;-6.90;1.00;;;;;;5070680;28;20411;-56
2022/12/17 19:01:34;;;;;;;43.07;18.47;;;-7.00;1.00;;;;;;5071297;28;20462;-54
2022/12/17 19:04:02;;;;;;;39.47;15.90;;;-7.10;1.00;;;;;;5068488;28;20391;-54
2022/12/17 19:06:28;;;;;;;44.10;17.60;;;-7.10;55.00;;;;;;5070807;28;20384;-54
2022/12/17 19:08:54;;;;;;;45.27;16.93;;;-7.30;60.00;;;;;;5071051;28;20379;-55
2022/12/17 19:11:21;;;;;;;44.93;19.63;;;-7.50;1.00;;;;;;5070349;28;20376;-54
2022/12/17 19:13:47;;;;;;;38.22;15.25;;;-7.50;1.00;;;;;;5067706;28;20407;-54
2022/12/17 19:16:18;;;;;;;40.80;18.47;;;-7.50;99.90;;;;;;5051695;28;20501;-54
2022/12/17 19:18:44;;;;;;;40.03;16.40;;;-7.60;1.00;;;;;;5052855;28;20725;-53
2022/12/17 19:21:15;;;;;;;48.92;17.98;;;-7.60;99.90;;;;;;5065471;28;20378;-54
2022/12/17 19:23:40;;;;;;;43.33;16.90;;;-7.50;99.90;;;;;;5067272;28;20393;-54
2022/12/17 19:26:12;;;;;;;44.40;17.93;;;-7.50;99.90;;;;;;5070119;28;20390;-55
2022/12/17 19:28:39;;;;;;;46.45;18.20;;;-7.50;1.00;;;;;;5066777;28;20901;-54
2022/12/17 19:31:05;;;;;;;46.47;17.55;;;-7.60;1.00;;;;;;5062165;28;20502;-57
2022/12/17 19:33:31;;;;;;;53.25;19.75;;;-7.60;20.60;;;;;;5064050;28;20508;-54
2022/12/17 19:36:04;;;;;;;43.08;17.58;;;-7.60;1.00;;;;;;5067680;28;20449;-54
2022/12/17 19:38:31;;;;;;;43.60;17.53;;;-7.60;1.00;;;;;;5068857;28;20437;-53
2022/12/17 19:41:02;;;;;;;44.53;18.05;;;-7.70;1.00;;;;;;5070073;28;20898;-53
2022/12/17 19:43:28;;;;;;;44.63;17.07;;;-7.70;1.00;;;;;;5064314;28;20436;-52
2022/12/17 19:46:00;;;;;;;47.13;17.90;;;-7.70;1.00;;;;;;5045092;28;20758;-54
2022/12/17 19:48:26;;;;;;;39.97;17.63;;;-7.70;1.00;;;;;;5067931;28;20647;-53
2022/12/17 19:50:55;;;;;;;40.05;16.33;;;-7.70;1.00;;;;;;5068566;28;20849;-53
2022/12/17 19:53:26;;;;;;;43.30;18.85;;;-7.80;99.90;;;;;;5067753;28;20454;-54
2022/12/17 19:55:56;;;;;;;40.75;17.80;;;-7.70;99.90;;;;;;5067580;28;20403;-54
2022/12/17 19:58:22;;;;;;;46.15;16.63;;;-7.60;99.90;;;;;;5069778;28;20471;-53
2022/12/17 20:00:49;;;;;;;53.07;21.57;;;-7.40;99.90;;;;;;5069626;28;20398;-55
2022/12/17 20:03:15;;;;;;;49.42;20.40;;;-7.30;99.90;;;;;;5048812;28;20404;-55
2022/12/17 20:05:45;;;;;;;58.03;22.90;;;-7.30;25.20;;;;;;5060280;28;20387;-52
2022/12/17 20:08:10;;;;;;;48.28;19.02;;;-7.30;1.00;;;;;;5069873;28;20380;-52
2022/12/17 20:10:36;;;;;;;50.03;20.43;;;-7.50;3.50;;;;;;5070227;28;20391;-53
2022/12/17 20:13:03;;;;;;;47.07;18.77;;;-7.60;1.00;;;;;;5067846;28;20398;-55
2022/12/17 20:15:29;;;;;;;48.90;19.48;;;-6.60;99.90;;;;;;5068890;28;20552;-54
2022/12/17 20:17:55;;;;;;;54.00;21.63;;;-7.60;99.90;;;;;;5068570;28;20404;-54
2022/12/17 20:20:20;;;;;;;48.92;20.70;;;-7.60;99.90;;;;;;5068695;28;20465;-55
2022/12/17 20:22:46;;;;;;;45.90;19.37;;;-7.50;99.90;;;;;;5070255;28;20768;-54
2022/12/17 20:25:12;;;;;;;52.83;20.50;;;-7.40;99.90;;;;;;5051150;28;20431;-54
2022/12/17 20:27:38;;;;;;;54.63;19.17;;;-7.30;99.90;;;;;;5069802;28;20828;-54
2022/12/17 20:30:04;;;;;;;48.10;19.85;;;-7.30;99.90;;;;;;5051726;28;20390;-56
2022/12/17 20:32:33;;;;;;;47.95;18.88;;;-7.30;99.90;;;;;;5069417;28;20474;-54
2022/12/17 20:34:58;;;;;;;44.28;18.83;;;-7.40;99.90;;;;;;5069804;28;20409;-54
2022/12/17 20:37:24;;;;;;;48.57;18.07;;;-8.60;99.90;;;;;;5062279;28;20933;-54
2022/12/17 20:39:50;;;;;;;45.17;19.83;;;-7.40;1.00;;;;;;5032265;28;20381;-54
2022/12/17 20:42:16;;;;;;;48.27;19.67;;;-7.40;1.00;;;;;;5049026;28;20391;-54
2022/12/17 20:44:43;;;;;;;46.92;19.58;;;-7.30;1.00;;;;;;5056821;28;20428;-54
2022/12/17 20:47:08;;;;;;;50.30;19.40;;;-7.10;1.00;;;;;;5063565;28;20433;-54
2022/12/17 20:49:34;;;;;;;52.20;21.90;;;-7.10;1.00;;;;;;5045858;28;20433;-55
2022/12/17 20:52:00;;;;;;;47.37;19.77;;;-7.00;1.00;;;;;;5051029;28;20397;-55
2022/12/17 20:54:25;;;;;;;42.40;18.70;;;-7.10;1.00;;;;;;5053554;28;21066;-55
2022/12/17 20:56:51;;;;;;;58.53;23.30;;;-7.20;1.00;;;;;;5065848;28;20785;-55
2022/12/17 20:59:18;;;;;;;48.38;18.58;;;-7.20;99.90;;;;;;5067894;28;20405;-55
2022/12/17 21:01:45;;;;;;;46.05;18.05;;;-7.40;1.00;;;;;;5050574;28;20464;-55
2022/12/17 21:04:12;;;;;;;39.95;16.10;;;-7.60;9.60;;;;;;5067767;28;20875;-55
2022/12/17 21:06:40;;;;;;;53.50;20.38;;;-7.70;99.90;;;;;;5065932;28;20403;-54
2022/12/17 21:09:06;;;;;;;41.25;16.75;;;-7.80;1.00;;;;;;5068405;28;20387;-56
2022/12/17 21:11:33;;;;;;;42.25;18.33;;;-7.90;1.00;;;;;;5066614;28;20404;-55
2022/12/17 21:14:03;;;;;;;50.35;19.52;;;-8.00;87.50;;;;;;5067651;28;20418;-55
2022/12/17 21:16:30;;;;;;;43.78;18.52;;;-8.10;92.40;;;;;;5067476;28;20394;-54
2022/12/17 21:18:57;;;;;;;45.00;17.57;;;-8.00;99.90;;;;;;5068362;28;20489;-54
2022/12/17 21:21:26;;;;;;;54.60;20.00;;;-8.00;99.90;;;;;;5067481;28;20376;-54
2022/12/17 21:23:51;;;;;;;44.40;16.63;;;-7.90;99.90;;;;;;5068433;28;20383;-54
2022/12/17 21:26:21;;;;;;;44.17;18.40;;;-7.90;99.90;;;;;;5067364;28;20725;-54
2022/12/17 21:28:50;;;;;;;49.17;18.97;;;-7.80;99.90;;;;;;5065691;28;20445;-54
2022/12/17 21:31:20;;;;;;;45.88;19.42;;;-7.70;99.90;;;;;;5067515;28;20395;-56
2022/12/17 21:33:47;;;;;;;40.78;18.00;;;-7.50;99.90;;;;;;5065537;28;20407;-54
2022/12/17 21:36:13;;;;;;;50.97;19.83;;;-7.60;1.00;;;;;;5067446;28;20446;-54
2022/12/17 21:38:39;;;;;;;46.22;18.13;;;-7.70;1.00;;;;;;5066571;28;22037;-54
2022/12/17 21:41:08;;;;;;;52.20;19.73;;;-7.60;1.00;;;;;;5065605;28;20390;-55
2022/12/17 21:43:35;;;;;;;35.92;17.45;;;-7.60;99.90;;;;;;5067502;28;20416;-54
2022/12/17 21:46:02;;;;;;;44.88;19.65;;;-7.50;1.00;;;;;;5066087;28;20459;-54
2022/12/17 21:48:28;;;;;;;54.35;21.10;;;-7.50;1.00;;;;;;5065382;28;20395;-54
2022/12/17 21:50:54;;;;;;;41.23;16.97;;;-7.40;1.00;;;;;;5067669;28;20379;-55
2022/12/17 21:53:20;;;;;;;48.90;20.53;;;-7.40;99.90;;;;;;5059525;28;20765;-55
2022/12/17 21:55:46;;;;;;;43.20;16.88;;;-7.30;1.00;;;;;;5056540;28;20387;-55
2022/12/17 21:58:12;;;;;;;40.05;17.98;;;-7.20;1.00;;;;;;5061005;28;20411;-55
2022/12/17 22:00:38;;;;;;;45.28;17.45;;;-7.20;1.00;;;;;;5066953;28;20387;-55
2022/12/17 22:03:03;;;;;;;47.72;20.42;;;-7.20;1.00;;;;;;5065223;28;20854;-55
2022/12/17 22:05:29;;;;;;;46.72;19.05;;;-7.30;1.00;;;;;;5067086;28;20403;-55
2022/12/17 22:07:54;;;;;;;39.25;17.35;;;-7.20;1.00;;;;;;5068416;28;20660;-55
2022/12/17 22:10:20;;;;;;;47.97;19.03;;;-7.10;99.90;;;;;;5067905;28;20380;-53
2022/12/17 22:15:30;;;;;;;50.63;22.25;;;-7.10;1.00;;;;;;5055554;28;20530;-54
2022/12/17 22:17:56;;;;;;;46.92;19.88;;;-7.10;20.30;;;;;;5064228;28;20929;-54
2022/12/17 22:20:22;;;;;;;42.22;16.98;;;-7.20;1.00;;;;;;5055741;28;20389;-54
2022/12/17 22:22:48;;;;;;;48.83;20.10;;;-7.30;1.00;;;;;;5059520;28;20431;-54
2022/12/17 22:25:14;;;;;;;40.42;17.63;;;-7.40;1.00;;;;;;5056594;28;20910;-54
2022/12/17 22:27:41;;;;;;;44.00;18.45;;;-7.40;1.00;;;;;;5058503;28;20380;-54
2022/12/17 22:33:04;;;;;;;42.92;18.02;;;-7.50;1.00;;;;;;5058678;28;20439;-54
2022/12/17 22:35:38;;;;;;;56.22;18.67;;;-7.60;99.90;;;;;;5057889;28;20434;-54
2022/12/17 22:38:05;;;;;;;39.33;17.90;;;-7.70;1.00;;;;;;5058317;28;20872;-54
2022/12/17 22:40:35;;;;;;;44.22;18.02;;;-7.70;1.00;;;;;;5056355;28;20386;-54
2022/12/17 22:45:45;;;;;;;46.58;18.42;;;-7.50;1.00;;;;;;5058371;28;20463;-54
2022/12/17 22:48:12;;;;;;;43.55;17.90;;;-7.60;1.00;;;;;;5056696;28;20460;-54
2022/12/17 22:50:38;;;;;;;51.53;19.90;;;-7.60;1.00;;;;;;5056527;28;20418;-54
2022/12/17 22:53:04;;;;;;;47.25;18.70;;;-7.60;1.00;;;;;;5058473;28;20388;-54
2022/12/17 22:55:30;;;;;;;60.50;18.92;;;-7.60;40.30;;;;;;5055150;28;20461;-54
2022/12/17 22:57:56;;;;;;;59.38;20.50;;;-7.40;1.00;;;;;;5057987;28;20386;-54
2022/12/17 23:00:26;;;;;;;46.38;19.92;;;-7.40;1.00;;;;;;5055328;28;20691;-54
2022/12/17 23:02:53;;;;;;;46.53;18.65;;;-7.30;99.90;;;;;;5057226;28;21133;-54
2022/12/17 23:05:23;;;;;;;45.17;18.48;;;-7.50;99.90;;;;;;5057298;28;20719;-54
2022/12/17 23:07:49;;;;;;;86.53;32.15;;;-7.60;99.90;;;;;;5058591;28;20379;-54
2022/12/17 23:10:15;;;;;;;73.18;23.17;;;-7.60;99.90;;;;;;5057853;28;20519;-54
2022/12/17 23:12:50;;;;;;;54.70;21.55;;;-7.60;99.90;;;;;;5038133;28;20762;-54
2022/12/17 23:15:27;;;;;;;42.43;16.90;;;-7.60;99.90;;;;;;5059314;28;20525;-54
2022/12/17 23:17:54;;;;;;;60.60;20.08;;;-7.70;99.90;;;;;;5062486;28;20497;-53
2022/12/17 23:20:21;;;;;;;42.33;17.83;;;-7.90;99.90;;;;;;5061191;28;20380;-54
2022/12/17 23:22:47;;;;;;;38.85;16.70;;;-7.90;1.00;;;;;;5060099;28;20381;-53
2022/12/17 23:25:13;;;;;;;43.53;17.15;;;-8.00;99.90;;;;;;5061163;28;20390;-54
2022/12/17 23:27:42;;;;;;;43.17;17.90;;;-8.00;99.90;;;;;;5027942;28;20390;-54
2022/12/17 23:30:08;;;;;;;39.60;16.67;;;-8.10;45.00;;;;;;5062293;28;20463;-55
2022/12/17 23:32:34;;;;;;;43.30;17.37;;;-8.10;99.90;;;;;;5060447;28;20438;-54
2022/12/17 23:34:59;;;;;;;42.87;17.93;;;-8.30;99.90;;;;;;5061777;28;20425;-54
2022/12/17 23:37:25;;;;;;;43.90;16.40;;;-8.30;99.90;;;;;;5059675;28;20735;-53
2022/12/17 23:39:51;;;;;;;46.63;17.53;;;-8.20;1.00;;;;;;5060785;28;20724;-54
2022/12/17 23:42:16;;;;;;;43.67;19.13;;;-8.20;1.00;;;;;;5060816;28;20381;-53
2022/12/17 23:44:42;;;;;;;46.97;18.92;;;-8.20;99.90;;;;;;5059054;28;20847;-53
2022/12/17 23:47:08;;;;;;;48.45;18.23;;;-8.20;1.00;;;;;;5058884;28;20911;-55
2022/12/17 23:49:33;;;;;;;44.00;17.37;;;-8.20;1.00;;;;;;5060475;28;20392;-53
2022/12/17 23:51:59;;;;;;;47.67;19.30;;;-8.10;99.90;;;;;;5061268;28;20551;-54
2022/12/17 23:54:25;;;;;;;42.63;18.23;;;-8.20;1.00;;;;;;5058400;28;20420;-54
2022/12/17 23:56:50;;;;;;;43.53;18.13;;;-8.20;1.00;;;;;;5060450;28;20424;-53
2022/12/17 23:59:16;;;;;;;47.15;18.23;;;-8.20;1.00;;;;;;5060047;28;20378;-53
